createdAt,value
2019-02-06T00:02:02.598Z,11.43
2019-02-06T00:04:06.859Z,11.50
2019-02-06T00:06:11.233Z,11.63
2019-02-06T00:08:15.451Z,12.05
2019-02-06T00:10:19.559Z,11.12
2019-02-06T00:12:23.656Z,13.00
2019-02-06T00:14:27.779Z,11.90
2019-02-06T00:16:31.985Z,12.55
2019-02-06T00:18:41.168Z,11.80
2019-02-06T00:20:45.346Z,13.55
2019-02-06T00:22:49.459Z,13.25
2019-02-06T00:24:53.265Z,14.55
2019-02-06T00:26:57.761Z,12.85
2019-02-06T00:29:01.970Z,13.72
2019-02-06T00:31:05.954Z,14.18
2019-02-06T00:33:10.085Z,14.25
2019-02-06T00:35:25.268Z,14.87
2019-02-06T00:37:20.067Z,15.18
2019-02-06T00:39:24.259Z,14.87
2019-02-06T00:41:30.487Z,15.75
2019-02-06T00:43:33.663Z,17.67
2019-02-06T00:45:37.497Z,15.90
2019-02-06T00:47:41.401Z,16.87
2019-02-06T00:49:45.648Z,15.50
2019-02-06T00:51:49.853Z,14.78
2019-02-06T00:53:55.489Z,15.25
2019-02-06T00:55:59.411Z,16.55
2019-02-06T00:58:03.617Z,17.70
2019-02-06T01:00:14.825Z,15.90
2019-02-06T01:02:19.011Z,15.58
2019-02-06T01:04:25.289Z,16.48
2019-02-06T01:06:29.163Z,15.20
2019-02-06T01:08:33.391Z,14.35
2019-02-06T01:10:37.895Z,15.63
2019-02-06T01:12:42.621Z,15.65
2019-02-06T01:14:46.743Z,15.13
2019-02-06T01:16:50.941Z,12.55
2019-02-06T01:18:55.166Z,14.05
2019-02-06T01:20:59.677Z,16.12
2019-02-06T01:23:03.595Z,14.25
2019-02-06T01:25:10.249Z,13.38
2019-02-06T01:27:14.357Z,14.60
2019-02-06T01:29:18.191Z,13.28
2019-02-06T01:31:23.203Z,13.88
2019-02-06T01:33:27.414Z,13.65
2019-02-06T01:35:31.522Z,13.60
2019-02-06T01:37:35.729Z,13.90
2019-02-06T01:39:39.846Z,15.05
2019-02-06T01:41:44.118Z,13.50
2019-02-06T01:43:48.259Z,13.90
2019-02-06T01:45:52.366Z,12.07
2019-02-06T01:47:56.478Z,13.08
2019-02-06T01:50:00.697Z,12.50
2019-02-06T01:52:04.980Z,10.90
2019-02-06T01:54:09.128Z,12.55
2019-02-06T01:56:13.231Z,13.45
2019-02-06T01:58:18.886Z,14.83
2019-02-06T02:00:25.969Z,14.78
2019-02-06T02:02:30.477Z,12.78
2019-02-06T02:04:34.580Z,12.15
2019-02-06T02:06:38.696Z,11.88
2019-02-06T02:08:44.354Z,13.45
2019-02-06T02:10:48.564Z,12.47
2019-02-06T02:12:52.870Z,11.53
2019-02-06T02:14:56.732Z,10.55
2019-02-06T02:17:00.888Z,11.65
2019-02-06T02:19:05.506Z,12.65
2019-02-06T02:21:09.636Z,13.13
2019-02-06T02:23:14.135Z,10.58
2019-02-06T02:25:18.462Z,10.20
2019-02-06T02:27:22.577Z,13.05
2019-02-06T02:29:26.776Z,11.78
2019-02-06T02:31:31.210Z,12.85
2019-02-06T02:33:35.624Z,10.45
2019-02-06T02:35:40.824Z,11.57
2019-02-06T02:37:45.063Z,11.90
2019-02-06T02:39:49.270Z,11.03
2019-02-06T02:41:53.390Z,15.10
2019-02-06T02:43:57.662Z,14.73
2019-02-06T02:46:01.811Z,13.65
2019-02-06T02:48:07.413Z,12.90
2019-02-06T02:50:12.232Z,12.45
2019-02-06T02:52:16.390Z,13.28
2019-02-06T02:54:20.513Z,14.18
2019-02-06T02:56:24.722Z,12.85
2019-02-06T02:58:28.557Z,14.98
2019-02-06T03:00:49.437Z,14.00
2019-02-06T03:03:11.664Z,13.30
2019-02-06T03:05:16.090Z,14.15
2019-02-06T03:07:20.288Z,13.25
2019-02-06T03:09:24.408Z,12.50
2019-02-06T03:11:28.635Z,12.15
2019-02-06T03:13:32.838Z,11.33
2019-02-06T03:15:37.028Z,10.18
2019-02-06T03:17:41.252Z,11.73
2019-02-06T03:19:47.316Z,10.60
2019-02-06T03:21:51.732Z,10.90
2019-02-06T03:23:55.953Z,10.50
2019-02-06T03:26:00.054Z,10.55
2019-02-06T03:28:04.162Z,12.18
2019-02-06T03:30:17.548Z,10.80
2019-02-06T03:32:21.690Z,9.28
2019-02-06T03:34:25.813Z,10.95
2019-02-06T03:36:39.845Z,8.45
2019-02-06T03:38:35.868Z,8.98
2019-02-06T03:40:40.097Z,9.63
2019-02-06T03:42:43.911Z,8.60
2019-02-06T03:44:48.105Z,8.78
2019-02-06T03:46:53.482Z,8.83
2019-02-06T03:48:57.952Z,9.80
2019-02-06T03:51:02.270Z,9.60
2019-02-06T03:53:06.485Z,9.25
2019-02-06T03:55:11.714Z,9.60
2019-02-06T03:57:16.031Z,9.28
2019-02-06T03:59:20.248Z,8.00
2019-02-06T04:01:24.347Z,9.10
2019-02-06T04:03:28.464Z,7.70
2019-02-06T04:05:32.312Z,8.08
2019-02-06T04:07:36.474Z,9.40
2019-02-06T04:09:40.586Z,7.53
2019-02-06T04:11:44.429Z,7.47
2019-02-06T04:13:48.315Z,7.12
2019-02-06T04:15:52.515Z,7.10
2019-02-06T04:17:56.618Z,6.30
2019-02-06T04:20:00.727Z,6.17
2019-02-06T04:22:05.047Z,6.92
2019-02-06T04:24:09.276Z,6.62
2019-02-06T04:26:13.379Z,7.03
2019-02-06T04:28:17.225Z,7.58
2019-02-06T04:30:21.717Z,8.35
2019-02-06T04:32:25.921Z,8.08
2019-02-06T04:34:29.759Z,9.35
2019-02-06T04:36:35.756Z,6.78
2019-02-06T04:38:40.071Z,6.60
2019-02-06T04:40:44.190Z,7.15
2019-02-06T04:42:48.400Z,7.85
2019-02-06T04:44:54.391Z,7.40
2019-02-06T04:47:00.105Z,7.65
2019-02-06T04:49:03.937Z,7.30
2019-02-06T04:51:08.134Z,7.12
2019-02-06T04:53:12.337Z,7.17
2019-02-06T04:55:18.956Z,6.67
2019-02-06T04:57:23.521Z,6.85
2019-02-06T04:59:27.646Z,7.30
2019-02-06T05:01:31.851Z,7.60
2019-02-06T05:03:36.067Z,7.53
2019-02-06T05:05:40.267Z,7.62
2019-02-06T05:07:44.536Z,6.30
2019-02-06T05:09:48.714Z,7.25
2019-02-06T05:11:52.908Z,7.87
2019-02-06T05:13:57.066Z,7.83
2019-02-06T05:16:01.334Z,10.50
2019-02-06T05:18:05.866Z,9.55
2019-02-06T05:20:21.533Z,9.25
2019-02-06T05:22:25.363Z,8.50
2019-02-06T05:24:29.567Z,9.33
2019-02-06T05:26:33.762Z,10.50
2019-02-06T05:28:37.884Z,10.55
2019-02-06T05:30:42.181Z,9.38
2019-02-06T05:32:45.999Z,7.97
2019-02-06T05:34:50.225Z,8.40
2019-02-06T05:36:54.426Z,8.88
2019-02-06T05:38:58.267Z,8.43
2019-02-06T05:41:02.461Z,7.62
2019-02-06T05:43:06.651Z,8.10
2019-02-06T05:45:12.239Z,8.05
2019-02-06T05:47:16.101Z,9.90
2019-02-06T05:49:20.207Z,8.05
2019-02-06T05:51:24.035Z,9.35
2019-02-06T05:53:28.222Z,9.25
2019-02-06T05:55:32.038Z,8.48
2019-02-06T05:57:36.239Z,9.53
2019-02-06T05:59:40.779Z,9.90
2019-02-06T06:01:44.607Z,10.00
2019-02-06T06:03:48.769Z,11.90
2019-02-06T06:05:52.992Z,9.70
2019-02-06T06:07:57.099Z,8.08
2019-02-06T06:10:01.506Z,7.37
2019-02-06T06:12:05.394Z,8.18
2019-02-06T06:14:09.572Z,9.73
2019-02-06T06:16:13.681Z,8.63
2019-02-06T06:18:17.841Z,9.85
2019-02-06T06:20:22.161Z,9.13
2019-02-06T06:22:26.414Z,9.95
2019-02-06T06:24:30.696Z,11.38
2019-02-06T06:26:34.520Z,12.43
2019-02-06T06:28:38.355Z,12.15
2019-02-06T06:30:42.519Z,11.38
2019-02-06T06:32:46.727Z,12.75
2019-02-06T06:34:50.559Z,10.60
2019-02-06T06:36:56.915Z,11.25
2019-02-06T06:39:00.616Z,13.72
2019-02-06T06:41:04.491Z,12.82
2019-02-06T06:43:08.721Z,12.23
2019-02-06T06:45:24.291Z,13.55
2019-02-06T06:47:28.495Z,14.55
2019-02-06T06:49:32.319Z,12.30
2019-02-06T06:51:36.341Z,11.88
2019-02-06T06:53:40.519Z,11.38
2019-02-06T06:55:46.693Z,11.45
2019-02-06T06:57:50.584Z,12.37
2019-02-06T06:59:55.697Z,11.40
2019-02-06T07:02:00.028Z,11.33
2019-02-06T07:04:04.254Z,10.65
2019-02-06T07:06:08.144Z,12.15
2019-02-06T07:08:13.536Z,11.57
2019-02-06T07:10:18.406Z,10.88
2019-02-06T07:12:22.553Z,11.78
2019-02-06T07:14:26.647Z,12.37
2019-02-06T07:16:30.859Z,12.15
2019-02-06T07:18:35.076Z,12.13
2019-02-06T07:20:39.177Z,11.45
2019-02-06T07:22:43.025Z,11.85
2019-02-06T07:24:46.861Z,12.60
2019-02-06T07:26:50.992Z,12.35
2019-02-06T07:28:55.212Z,10.85
2019-02-06T07:30:59.331Z,15.38
2019-02-06T07:33:03.663Z,15.48
2019-02-06T07:35:07.949Z,15.38
2019-02-06T07:37:12.058Z,16.82
2019-02-06T07:39:15.894Z,20.00
2019-02-06T07:41:19.754Z,18.65
2019-02-06T07:43:23.882Z,19.42
2019-02-06T07:45:28.086Z,21.07
2019-02-06T07:47:31.935Z,21.05
2019-02-06T07:49:35.760Z,21.52
2019-02-06T07:51:39.902Z,21.52
2019-02-06T07:53:44.212Z,20.77
2019-02-06T07:55:48.339Z,21.20
2019-02-06T07:57:52.538Z,19.70
2019-02-06T07:59:56.750Z,22.62
2019-02-06T08:02:00.976Z,21.77
2019-02-06T08:04:05.486Z,21.95
2019-02-06T08:06:09.711Z,22.02
2019-02-06T08:08:13.922Z,22.73
2019-02-06T08:10:29.443Z,23.80
2019-02-06T08:12:33.233Z,24.60
2019-02-06T08:14:37.407Z,22.65
2019-02-06T08:16:41.617Z,26.45
2019-02-06T08:18:45.834Z,43.00
2019-02-06T08:20:49.953Z,38.75
2019-02-06T08:22:54.355Z,22.35
2019-02-06T08:24:58.977Z,22.32
2019-02-06T08:27:03.190Z,25.52
2019-02-06T08:29:07.016Z,24.77
2019-02-06T08:31:11.129Z,24.50
2019-02-06T08:33:14.940Z,24.18
2019-02-06T08:35:18.776Z,24.45
2019-02-06T08:37:23.334Z,25.55
2019-02-06T08:39:27.452Z,25.60
2019-02-06T08:41:31.565Z,26.35
2019-02-06T08:43:35.789Z,25.12
2019-02-06T08:45:39.879Z,22.90
2019-02-06T08:47:44.501Z,26.27
2019-02-06T08:49:48.718Z,25.52
2019-02-06T08:51:52.534Z,27.90
2019-02-06T08:53:56.376Z,23.45
2019-02-06T08:56:00.192Z,22.07
2019-02-06T08:58:04.805Z,20.62
2019-02-06T09:00:14.114Z,21.17
2019-02-06T09:02:18.292Z,22.87
2019-02-06T09:04:22.118Z,22.45
2019-02-06T09:06:26.026Z,23.15
2019-02-06T09:08:30.226Z,22.20
2019-02-06T09:10:34.416Z,24.60
2019-02-06T09:12:38.644Z,39.27
2019-02-06T09:14:42.746Z,30.57
2019-02-06T09:16:46.565Z,23.47
2019-02-06T09:18:50.852Z,24.27
2019-02-06T09:20:54.984Z,22.05
2019-02-06T09:22:59.552Z,20.60
2019-02-06T09:25:04.742Z,36.63
2019-02-06T09:27:09.059Z,24.75
2019-02-06T09:29:13.472Z,111.55
2019-02-06T09:31:17.675Z,43.83
2019-02-06T09:33:21.800Z,42.73
2019-02-06T09:35:26.004Z,32.45
2019-02-06T09:37:30.206Z,31.12
2019-02-06T09:39:34.530Z,31.65
2019-02-06T09:41:38.740Z,20.70
2019-02-06T09:43:42.952Z,21.33
2019-02-06T09:45:47.068Z,21.30
2019-02-06T09:47:51.288Z,16.05
2019-02-06T09:49:57.862Z,20.45
2019-02-06T09:52:02.067Z,19.60
2019-02-06T09:54:06.363Z,19.95
2019-02-06T09:56:10.586Z,20.75
2019-02-06T09:58:14.857Z,18.90
2019-02-06T10:00:21.768Z,18.85
2019-02-06T10:02:27.935Z,18.90
2019-02-06T10:04:32.071Z,19.15
2019-02-06T10:06:35.937Z,19.15
2019-02-06T10:08:40.155Z,17.73
2019-02-06T10:10:44.581Z,18.23
2019-02-06T10:12:48.887Z,18.35
2019-02-06T10:14:53.007Z,17.00
2019-02-06T10:16:57.122Z,17.92
2019-02-06T10:19:01.328Z,18.70
2019-02-06T10:21:05.842Z,19.90
2019-02-06T10:23:11.173Z,19.25
2019-02-06T10:25:15.180Z,17.73
2019-02-06T10:27:19.309Z,17.30
2019-02-06T10:29:23.512Z,16.62
2019-02-06T10:31:27.639Z,16.00
2019-02-06T10:33:31.741Z,14.73
2019-02-06T10:35:35.941Z,14.60
2019-02-06T10:37:39.785Z,15.18
2019-02-06T10:39:43.607Z,15.90
2019-02-06T10:41:48.195Z,15.28
2019-02-06T10:43:52.382Z,14.58
2019-02-06T10:45:56.500Z,15.15
2019-02-06T10:48:00.611Z,14.85
2019-02-06T10:50:07.696Z,14.18
2019-02-06T10:52:11.806Z,13.85
2019-02-06T10:54:18.254Z,13.90
2019-02-06T10:56:22.484Z,14.38
2019-02-06T10:58:26.584Z,14.75
2019-02-06T11:00:33.714Z,13.15
2019-02-06T11:02:37.887Z,13.28
2019-02-06T11:04:41.994Z,14.35
2019-02-06T11:06:46.193Z,13.90
2019-02-06T11:08:50.406Z,15.53
2019-02-06T11:10:54.366Z,13.60
2019-02-06T11:12:58.835Z,13.98
2019-02-06T11:15:03.058Z,13.35
2019-02-06T11:17:08.587Z,13.30
2019-02-06T11:19:12.716Z,13.70
2019-02-06T11:21:16.927Z,13.45
2019-02-06T11:23:23.012Z,14.00
2019-02-06T11:25:27.297Z,15.23
2019-02-06T11:27:31.502Z,13.88
2019-02-06T11:29:35.724Z,13.80
2019-02-06T11:31:39.537Z,14.38
2019-02-06T11:33:43.843Z,12.63
2019-02-06T11:35:47.665Z,11.80
2019-02-06T11:37:55.859Z,13.08
2019-02-06T11:40:00.066Z,12.80
2019-02-06T11:42:04.259Z,12.55
2019-02-06T11:44:08.500Z,12.07
2019-02-06T11:46:13.019Z,12.28
2019-02-06T11:48:16.854Z,10.85
2019-02-06T11:50:23.918Z,11.30
2019-02-06T11:52:28.201Z,12.13
2019-02-06T11:54:32.520Z,12.07
2019-02-06T11:56:36.836Z,11.63
2019-02-06T11:58:41.035Z,11.40
2019-02-06T12:00:53.041Z,11.22
2019-02-06T12:02:57.241Z,11.28
2019-02-06T12:05:01.377Z,10.23
2019-02-06T12:07:05.684Z,9.63
2019-02-06T12:09:14.025Z,9.68
2019-02-06T12:11:18.193Z,9.00
2019-02-06T12:13:22.400Z,8.75
2019-02-06T12:15:26.524Z,8.60
2019-02-06T12:17:30.745Z,9.50
2019-02-06T12:19:34.862Z,8.75
2019-02-06T12:21:39.053Z,8.95
2019-02-06T12:23:43.254Z,9.20
2019-02-06T12:25:47.070Z,7.90
2019-02-06T12:27:57.628Z,9.40
2019-02-06T12:30:02.047Z,9.90
2019-02-06T12:32:08.419Z,9.90
2019-02-06T12:34:11.985Z,10.93
2019-02-06T12:36:16.046Z,11.43
2019-02-06T12:38:19.605Z,11.33
2019-02-06T12:40:24.259Z,10.60
2019-02-06T12:42:27.773Z,10.87
2019-02-06T12:44:31.642Z,11.17
2019-02-06T12:46:35.564Z,10.80
2019-02-06T12:48:39.551Z,10.07
2019-02-06T12:50:43.447Z,9.47
2019-02-06T12:52:47.366Z,10.23
2019-02-06T12:54:51.259Z,9.83
2019-02-06T12:56:55.077Z,8.53
2019-02-06T12:58:58.904Z,9.00
2019-02-06T13:01:02.759Z,8.53
2019-02-06T13:03:09.005Z,9.00
2019-02-06T13:05:12.935Z,8.40
2019-02-06T13:07:16.453Z,9.03
2019-02-06T13:09:20.340Z,10.07
2019-02-06T13:11:24.242Z,9.17
2019-02-06T13:13:27.849Z,8.57
2019-02-06T13:15:31.651Z,8.13
2019-02-06T13:17:35.569Z,8.90
2019-02-06T13:19:39.470Z,8.07
2019-02-06T13:21:43.281Z,7.93
2019-02-06T13:23:49.529Z,7.53
2019-02-06T13:25:53.541Z,8.80
2019-02-06T13:27:57.057Z,8.50
2019-02-06T13:30:00.927Z,8.17
2019-02-06T13:32:04.780Z,7.07
2019-02-06T13:34:08.321Z,7.60
2019-02-06T13:36:12.330Z,6.03
2019-02-06T13:38:16.444Z,5.75
2019-02-06T13:40:28.085Z,5.93
2019-02-06T13:42:31.955Z,6.20
2019-02-06T13:44:35.851Z,6.63
2019-02-06T13:46:39.646Z,6.23
2019-02-06T13:48:43.183Z,5.23
2019-02-06T13:50:47.464Z,5.47
2019-02-06T13:52:51.402Z,5.60
2019-02-06T13:54:55.494Z,5.15
2019-02-06T13:56:59.681Z,5.42
2019-02-06T13:59:03.900Z,5.05
2019-02-06T14:01:09.451Z,6.17
2019-02-06T14:03:13.660Z,5.97
2019-02-06T14:05:20.124Z,5.58
2019-02-06T14:07:23.652Z,7.60
2019-02-06T14:09:27.816Z,6.47
2019-02-06T14:11:32.040Z,6.10
2019-02-06T14:13:35.940Z,7.47
2019-02-06T14:15:45.082Z,6.47
2019-02-06T14:17:48.984Z,6.60
2019-02-06T14:19:52.833Z,6.00
2019-02-06T14:21:56.689Z,6.07
2019-02-06T14:24:03.541Z,5.30
2019-02-06T14:26:14.298Z,6.03
2019-02-06T14:28:44.552Z,6.67
2019-02-06T14:31:06.513Z,6.23
2019-02-06T14:33:22.171Z,5.40
2019-02-06T14:35:32.016Z,8.03
2019-02-06T14:37:58.647Z,6.70
2019-02-06T14:40:20.633Z,5.37
2019-02-06T14:42:30.630Z,5.78
2019-02-06T14:44:43.162Z,5.47
2019-02-06T14:47:10.278Z,5.50
2019-02-06T14:49:26.177Z,7.25
2019-02-06T14:51:49.730Z,7.17
2019-02-06T14:53:59.198Z,5.90
2019-02-06T14:56:36.300Z,5.60
2019-02-06T14:59:02.212Z,4.90
2019-02-06T15:01:31.657Z,5.80
2019-02-06T15:03:40.763Z,4.83
2019-02-06T15:06:02.743Z,5.23
2019-02-06T15:08:26.407Z,4.92
2019-02-06T15:10:39.651Z,4.50
2019-02-06T15:12:52.484Z,5.10
2019-02-06T15:14:59.762Z,4.97
2019-02-06T15:17:21.761Z,4.00
2019-02-06T15:19:34.876Z,4.10
2019-02-06T15:21:50.973Z,5.72
2019-02-06T15:24:20.924Z,7.08
2019-02-06T15:26:43.043Z,8.48
2019-02-06T15:28:57.422Z,7.78
2019-02-06T15:31:10.290Z,7.87
2019-02-06T15:33:23.424Z,8.08
2019-02-06T15:35:57.911Z,8.40
2019-02-06T15:38:07.990Z,8.00
2019-02-06T15:40:24.281Z,8.43
2019-02-06T15:42:47.881Z,8.65
2019-02-06T15:44:55.117Z,10.10
2019-02-06T15:47:20.236Z,9.70
2019-02-06T15:49:42.561Z,9.98
2019-02-06T15:52:07.690Z,11.18
2019-02-06T15:54:38.933Z,10.85
2019-02-06T15:57:17.731Z,9.38
2019-02-06T15:59:57.900Z,10.40
2019-02-06T16:02:13.585Z,8.15
2019-02-06T16:04:34.086Z,11.10
2019-02-06T16:06:44.231Z,9.68
2019-02-06T16:09:09.458Z,8.53
2019-02-06T16:11:28.695Z,10.05
2019-02-06T16:13:44.232Z,9.13
2019-02-06T16:16:03.558Z,9.48
2019-02-06T16:18:10.465Z,10.20
2019-02-06T16:20:38.431Z,11.28
2019-02-06T16:22:57.364Z,12.07
2019-02-06T16:25:31.873Z,11.15
2019-02-06T16:27:44.696Z,10.88
2019-02-06T16:30:00.353Z,11.38
2019-02-06T16:32:09.146Z,11.55
2019-02-06T16:34:43.127Z,10.65
2019-02-06T16:36:55.900Z,9.23
2019-02-06T16:39:14.865Z,10.03
2019-02-06T16:41:53.011Z,12.03
2019-02-06T16:43:56.059Z,11.18
2019-02-06T16:46:27.239Z,11.90
2019-02-06T16:48:49.662Z,11.50
2019-02-06T16:51:09.017Z,11.22
2019-02-06T16:53:30.123Z,14.10
2019-02-06T16:55:58.193Z,11.55
2019-02-06T16:58:05.078Z,11.22
2019-02-06T17:00:20.568Z,13.15
2019-02-06T17:02:47.485Z,13.00
2019-02-06T17:05:06.657Z,10.88
2019-02-06T17:07:17.013Z,11.28
2019-02-06T17:09:32.832Z,11.30
2019-02-06T17:11:51.891Z,10.80
2019-02-06T17:14:10.853Z,13.40
2019-02-06T17:16:27.024Z,14.23
2019-02-06T17:18:49.835Z,13.08
2019-02-06T17:21:03.218Z,13.03
2019-02-06T17:23:16.495Z,12.95
2019-02-06T17:25:39.938Z,12.28
2019-02-06T17:27:47.615Z,12.93
2019-02-06T17:29:58.183Z,13.48
2019-02-06T17:32:16.785Z,12.00
2019-02-06T17:34:44.907Z,12.30
2019-02-06T17:36:54.941Z,12.68
2019-02-06T17:39:05.627Z,13.35
2019-02-06T17:41:20.354Z,11.43
2019-02-06T17:43:36.205Z,10.08
2019-02-06T17:46:04.690Z,10.43
2019-02-06T17:48:17.747Z,11.85
2019-02-06T17:50:47.621Z,10.90
2019-02-06T17:53:06.513Z,11.35
2019-02-06T17:55:21.646Z,10.03
2019-02-06T17:57:25.840Z,11.50
2019-02-06T17:59:30.177Z,11.48
2019-02-06T18:01:35.430Z,11.28
2019-02-06T18:03:48.215Z,10.95
2019-02-06T18:05:52.445Z,10.95
2019-02-06T18:07:56.854Z,11.97
2019-02-06T18:10:00.878Z,11.85
2019-02-06T18:12:06.083Z,12.20
2019-02-06T18:14:11.804Z,12.00
2019-02-06T18:16:21.434Z,10.40
2019-02-06T18:18:22.018Z,10.32
2019-02-06T18:20:26.228Z,10.68
2019-02-06T18:22:30.441Z,11.20
2019-02-06T18:24:34.282Z,11.83
2019-02-06T18:26:42.279Z,11.48
2019-02-06T18:28:47.769Z,13.83
2019-02-06T18:30:52.359Z,12.43
2019-02-06T18:33:01.503Z,11.78
2019-02-06T18:35:07.927Z,12.65
2019-02-06T18:37:12.521Z,11.43
2019-02-06T18:39:16.718Z,11.65
2019-02-06T18:41:21.049Z,12.37
2019-02-06T18:43:25.597Z,12.95
2019-02-06T18:45:29.896Z,12.05
2019-02-06T18:47:33.753Z,12.93
2019-02-06T18:49:37.723Z,13.28
2019-02-06T18:51:42.267Z,12.82
2019-02-06T18:53:46.867Z,13.18
2019-02-06T18:55:51.378Z,12.88
2019-02-06T18:57:55.622Z,13.45
2019-02-06T19:00:00.506Z,12.23
2019-02-06T19:02:05.230Z,12.73
2019-02-06T19:04:11.263Z,13.58
2019-02-06T19:06:15.742Z,11.97
2019-02-06T19:08:19.757Z,13.98
2019-02-06T19:10:26.385Z,12.43
2019-02-06T19:12:30.812Z,12.55
2019-02-06T19:14:35.001Z,14.07
2019-02-06T19:16:39.230Z,12.88
2019-02-06T19:18:43.395Z,13.65
2019-02-06T19:20:47.301Z,11.85
2019-02-06T19:22:51.279Z,12.28
2019-02-06T19:24:55.570Z,13.78
2019-02-06T19:27:00.936Z,13.30
2019-02-06T19:29:05.233Z,13.28
2019-02-06T19:31:09.527Z,12.43
2019-02-06T19:33:13.633Z,13.32
2019-02-06T19:35:17.829Z,12.68
2019-02-06T19:37:22.074Z,13.75
2019-02-06T19:39:26.583Z,14.50
2019-02-06T19:41:30.786Z,12.70
2019-02-06T19:43:35.015Z,12.23
2019-02-06T19:45:39.443Z,13.10
2019-02-06T19:47:43.363Z,12.40
2019-02-06T19:49:47.550Z,11.30
2019-02-06T19:51:51.968Z,10.28
2019-02-06T19:53:56.263Z,11.60
2019-02-06T19:56:00.890Z,11.30
2019-02-06T19:58:06.602Z,12.18
2019-02-06T20:00:19.468Z,10.70
2019-02-06T20:02:24.958Z,12.40
2019-02-06T20:04:31.832Z,11.25
2019-02-06T20:06:36.032Z,11.28
2019-02-06T20:08:40.191Z,9.95
2019-02-06T20:10:50.396Z,10.43
2019-02-06T20:12:54.577Z,10.90
2019-02-06T20:15:03.795Z,11.18
2019-02-06T20:17:07.598Z,12.33
2019-02-06T20:19:11.435Z,11.65
2019-02-06T20:21:15.792Z,10.43
2019-02-06T20:23:19.928Z,11.08
2019-02-06T20:25:23.922Z,10.90
2019-02-06T20:27:28.147Z,12.88
2019-02-06T20:29:32.265Z,12.33
2019-02-06T20:31:36.353Z,11.95
2019-02-06T20:33:40.212Z,10.75
2019-02-06T20:35:45.694Z,13.62
2019-02-06T20:37:49.833Z,14.80
2019-02-06T20:39:54.373Z,18.42
2019-02-06T20:41:58.566Z,17.57
2019-02-06T20:44:02.796Z,16.30
2019-02-06T20:46:07.000Z,13.72
2019-02-06T20:48:10.874Z,14.03
2019-02-06T20:50:21.072Z,13.55
2019-02-06T20:52:25.461Z,13.35
2019-02-06T20:54:29.667Z,11.60
2019-02-06T20:56:33.794Z,11.45
2019-02-06T20:58:39.614Z,12.93
2019-02-06T21:00:44.074Z,11.85
2019-02-06T21:02:48.271Z,10.25
2019-02-06T21:04:52.475Z,11.50
2019-02-06T21:06:56.303Z,13.43
2019-02-06T21:09:00.495Z,14.60
2019-02-06T21:11:05.218Z,14.35
2019-02-06T21:13:09.052Z,15.90
2019-02-06T21:15:13.682Z,16.27
2019-02-06T21:17:17.511Z,18.12
2019-02-06T21:19:21.650Z,13.25
2019-02-06T21:21:26.174Z,13.18
2019-02-06T21:23:30.382Z,10.82
2019-02-06T21:25:34.230Z,12.58
2019-02-06T21:27:38.398Z,12.00
2019-02-06T21:29:42.524Z,13.95
2019-02-06T21:31:46.933Z,22.90
2019-02-06T21:33:51.170Z,22.75
2019-02-06T21:35:55.041Z,16.52
2019-02-06T21:37:58.884Z,13.85
2019-02-06T21:40:02.810Z,14.23
2019-02-06T21:42:07.382Z,14.00
2019-02-06T21:44:11.488Z,14.25
2019-02-06T21:46:15.596Z,14.45
2019-02-06T21:48:22.285Z,13.85
2019-02-06T21:50:25.976Z,13.62
2019-02-06T21:52:30.439Z,13.72
2019-02-06T21:54:34.210Z,13.43
2019-02-06T21:56:38.293Z,12.98
2019-02-06T21:58:42.503Z,12.78
2019-02-06T22:00:46.638Z,13.70
2019-02-06T22:02:51.350Z,13.32
2019-02-06T22:04:55.286Z,14.45
2019-02-06T22:06:59.117Z,14.80
2019-02-06T22:09:03.312Z,15.13
2019-02-06T22:11:07.182Z,16.75
2019-02-06T22:13:11.596Z,15.95
2019-02-06T22:15:24.215Z,14.93
2019-02-06T22:17:28.418Z,14.30
2019-02-06T22:19:32.640Z,15.28
2019-02-06T22:21:36.834Z,13.55
2019-02-06T22:23:40.682Z,14.63
2019-02-06T22:25:44.864Z,15.83
2019-02-06T22:27:50.686Z,14.38
2019-02-06T22:29:57.466Z,13.40
2019-02-06T22:32:01.588Z,12.95
2019-02-06T22:34:05.900Z,14.87
2019-02-06T22:36:10.312Z,12.80
2019-02-06T22:38:14.446Z,13.78
2019-02-06T22:40:20.400Z,13.93
2019-02-06T22:42:24.599Z,14.65
2019-02-06T22:44:28.461Z,13.22
2019-02-06T22:46:32.606Z,12.18
2019-02-06T22:48:36.717Z,15.15
2019-02-06T22:50:40.845Z,14.43
2019-02-06T22:52:45.038Z,14.33
2019-02-06T22:54:49.159Z,13.18
2019-02-06T22:56:53.368Z,15.65
2019-02-06T22:58:57.576Z,16.45
2019-02-06T23:01:04.754Z,16.62
2019-02-06T23:03:09.003Z,16.35
2019-02-06T23:05:13.200Z,17.00
2019-02-06T23:07:17.504Z,17.45
2019-02-06T23:09:21.810Z,18.48
2019-02-06T23:11:26.355Z,15.72
2019-02-06T23:13:30.656Z,14.23
2019-02-06T23:15:34.954Z,15.10
2019-02-06T23:17:39.291Z,21.02
2019-02-06T23:19:43.713Z,16.95
2019-02-06T23:21:47.920Z,14.85
2019-02-06T23:23:52.111Z,15.63
2019-02-06T23:25:56.341Z,14.05
2019-02-06T23:28:00.556Z,15.25
2019-02-06T23:30:08.300Z,12.63
2019-02-06T23:32:12.137Z,12.68
2019-02-06T23:34:16.354Z,15.13
2019-02-06T23:36:20.482Z,15.20
2019-02-06T23:38:24.603Z,13.75
2019-02-06T23:40:28.453Z,14.83
2019-02-06T23:42:32.275Z,14.15
2019-02-06T23:44:36.409Z,15.83
2019-02-06T23:46:40.606Z,15.80
2019-02-06T23:48:44.711Z,16.10
2019-02-06T23:50:48.835Z,15.75
2019-02-06T23:52:53.055Z,15.10
2019-02-06T23:54:57.253Z,14.35
2019-02-06T23:57:01.379Z,15.13
2019-02-06T23:59:05.453Z,15.38
